createdAt,value
2019-03-29T00:00:56.558Z,38.40
2019-03-29T00:04:00.848Z,38.40
2019-03-29T00:07:04.307Z,38.40
2019-03-29T00:10:09.217Z,38.40
2019-03-29T00:13:14.595Z,38.40
2019-03-29T00:16:17.829Z,38.50
2019-03-29T00:19:21.128Z,38.50
2019-03-29T00:22:24.316Z,38.50
2019-03-29T00:25:27.535Z,38.50
2019-03-29T00:28:30.655Z,38.60
2019-03-29T00:31:33.788Z,38.50
2019-03-29T00:34:37.225Z,38.60
2019-03-29T00:37:52.786Z,38.60
2019-03-29T00:40:45.072Z,38.70
2019-03-29T00:43:48.344Z,38.60
2019-03-29T00:46:51.435Z,38.70
2019-03-29T00:49:55.537Z,38.70
2019-03-29T00:52:58.805Z,38.70
2019-03-29T00:56:02.151Z,38.70
2019-03-29T00:59:05.537Z,38.80
2019-03-29T01:02:09.029Z,38.80
2019-03-29T01:05:12.458Z,38.80
2019-03-29T01:08:16.372Z,38.70
2019-03-29T01:11:19.573Z,38.80
2019-03-29T01:14:22.932Z,38.90
2019-03-29T01:17:26.630Z,38.80
2019-03-29T01:20:29.797Z,38.80
2019-03-29T01:23:33.200Z,38.90
2019-03-29T01:26:36.151Z,38.90
2019-03-29T01:29:39.241Z,39.00
2019-03-29T01:32:42.182Z,38.90
2019-03-29T01:35:45.327Z,38.90
2019-03-29T01:38:48.379Z,39.10
2019-03-29T01:41:52.931Z,39.00
2019-03-29T01:44:56.151Z,39.10
2019-03-29T01:47:59.368Z,39.00
2019-03-29T01:51:03.614Z,39.00
2019-03-29T01:54:07.784Z,39.10
2019-03-29T01:57:11.667Z,39.10
2019-03-29T02:00:20.121Z,39.20
2019-03-29T02:03:23.106Z,39.20
2019-03-29T02:06:27.372Z,39.30
2019-03-29T02:09:31.018Z,39.20
2019-03-29T02:12:34.341Z,39.30
2019-03-29T02:15:37.924Z,39.30
2019-03-29T02:18:41.381Z,39.30
2019-03-29T02:21:44.437Z,39.40
2019-03-29T02:24:47.622Z,39.50
2019-03-29T02:27:50.545Z,39.50
2019-03-29T02:30:53.701Z,39.40
2019-03-29T02:33:57.341Z,39.50
2019-03-29T02:37:01.954Z,39.60
2019-03-29T02:40:05.577Z,39.50
2019-03-29T02:43:10.641Z,39.60
2019-03-29T02:46:13.294Z,39.60
2019-03-29T02:49:16.236Z,39.60
2019-03-29T02:52:19.134Z,39.70
2019-03-29T02:55:22.091Z,39.70
2019-03-29T02:58:25.168Z,39.70
2019-03-29T03:01:28.143Z,39.70
2019-03-29T03:04:31.053Z,39.80
2019-03-29T03:07:33.823Z,39.90
2019-03-29T03:10:38.595Z,39.90
2019-03-29T03:13:41.591Z,39.80
2019-03-29T03:16:44.621Z,39.80
2019-03-29T03:19:47.596Z,39.90
2019-03-29T03:22:50.539Z,39.90
2019-03-29T03:25:53.369Z,40.00
2019-03-29T03:28:56.165Z,40.10
2019-03-29T03:31:58.894Z,40.00
2019-03-29T03:35:01.660Z,40.10
2019-03-29T03:38:04.646Z,40.00
2019-03-29T03:41:07.927Z,40.00
2019-03-29T03:44:11.575Z,40.20
2019-03-29T03:47:14.495Z,40.10
2019-03-29T03:50:42.668Z,40.20
2019-03-29T03:53:45.557Z,40.20
2019-03-29T03:56:50.773Z,40.30
2019-03-29T03:59:55.525Z,40.30
2019-03-29T04:02:59.480Z,40.20
2019-03-29T04:06:02.460Z,40.40
2019-03-29T04:09:06.498Z,40.30
2019-03-29T04:12:09.264Z,40.40
2019-03-29T04:15:12.525Z,40.50
2019-03-29T04:18:16.224Z,40.50
2019-03-29T04:21:19.625Z,40.50
2019-03-29T04:24:22.381Z,40.50
2019-03-29T04:27:25.171Z,40.50
2019-03-29T04:30:27.844Z,40.60
2019-03-29T04:33:30.737Z,40.60
2019-03-29T04:36:33.481Z,40.60
2019-03-29T04:39:36.165Z,40.60
2019-03-29T04:42:38.949Z,40.80
2019-03-29T04:45:41.822Z,40.70
2019-03-29T04:48:44.791Z,40.80
2019-03-29T04:51:47.854Z,40.70
2019-03-29T04:54:50.709Z,40.90
2019-03-29T04:57:53.651Z,40.90
2019-03-29T05:00:56.631Z,40.90
2019-03-29T05:03:59.561Z,40.80
2019-03-29T05:07:02.497Z,40.90
2019-03-29T05:10:05.511Z,41.00
2019-03-29T05:13:08.372Z,40.90
2019-03-29T05:16:11.249Z,40.90
2019-03-29T05:19:14.094Z,41.00
2019-03-29T05:22:17.176Z,41.10
2019-03-29T05:25:20.205Z,40.90
2019-03-29T05:28:23.024Z,41.00
2019-03-29T05:31:25.919Z,41.10
2019-03-29T05:34:28.906Z,41.10
2019-03-29T05:37:31.908Z,41.10
2019-03-29T05:40:35.497Z,41.00
2019-03-29T05:43:38.600Z,41.10
2019-03-29T05:46:41.569Z,41.10
2019-03-29T05:49:44.640Z,41.10
2019-03-29T05:52:47.571Z,41.10
2019-03-29T05:55:50.495Z,41.10
2019-03-29T05:58:53.394Z,41.10
2019-03-29T06:01:57.380Z,41.10
2019-03-29T06:05:00.508Z,41.10
2019-03-29T06:08:03.654Z,41.10
2019-03-29T06:11:06.774Z,41.10
2019-03-29T06:14:10.970Z,41.10
2019-03-29T06:17:13.938Z,41.10
2019-03-29T06:20:17.337Z,41.00
2019-03-29T06:23:20.558Z,41.10
2019-03-29T06:26:23.686Z,40.90
2019-03-29T06:29:26.816Z,40.70
2019-03-29T06:32:29.653Z,40.70
2019-03-29T06:35:37.942Z,40.50
2019-03-29T06:38:41.794Z,40.40
2019-03-29T06:41:44.790Z,40.80
2019-03-29T06:44:47.850Z,40.60
2019-03-29T06:47:50.897Z,40.50
2019-03-29T06:50:54.139Z,40.40
2019-03-29T06:53:57.299Z,40.40
2019-03-29T06:57:00.352Z,40.40
2019-03-29T07:00:03.706Z,40.40
2019-03-29T07:03:07.117Z,40.40
2019-03-29T07:06:10.350Z,40.40
2019-03-29T07:09:13.741Z,40.20
2019-03-29T07:12:17.036Z,40.20
2019-03-29T07:15:20.399Z,40.20
2019-03-29T07:18:23.437Z,40.00
2019-03-29T07:21:28.364Z,40.00
2019-03-29T07:24:31.595Z,39.90
2019-03-29T07:27:44.973Z,39.80
2019-03-29T07:30:39.657Z,39.70
2019-03-29T07:33:42.771Z,39.70
2019-03-29T07:36:45.923Z,39.60
2019-03-29T07:39:49.038Z,39.60
2019-03-29T07:42:52.279Z,40.20
2019-03-29T07:45:55.563Z,39.50
2019-03-29T07:48:58.766Z,39.50
2019-03-29T07:52:01.849Z,39.40
2019-03-29T07:55:06.311Z,39.20
2019-03-29T07:58:09.584Z,39.30
2019-03-29T08:01:12.695Z,39.20
2019-03-29T08:04:16.750Z,39.30
2019-03-29T08:07:27.070Z,39.70
2019-03-29T08:10:30.194Z,39.10
2019-03-29T08:13:30.926Z,38.90
2019-03-29T08:16:34.244Z,38.90
2019-03-29T08:19:37.491Z,39.40
2019-03-29T08:37:34.966Z,38.70
2019-03-29T08:45:18.389Z,38.70
2019-03-29T08:48:21.823Z,38.60
2019-03-29T08:51:25.103Z,38.70
2019-03-29T08:54:51.465Z,38.60
2019-03-29T08:57:54.705Z,38.50
2019-03-29T09:00:57.308Z,38.60
2019-03-29T09:04:05.464Z,38.60
2019-03-29T09:07:05.648Z,38.50
2019-03-29T09:10:41.861Z,38.50
2019-03-29T09:17:31.271Z,38.40
2019-03-29T09:20:34.642Z,38.30
2019-03-29T09:23:38.122Z,38.30
2019-03-29T09:26:40.439Z,38.20
2019-03-29T09:29:42.732Z,38.20
2019-03-29T09:32:45.003Z,38.50
2019-03-29T09:35:47.254Z,39.30
2019-03-29T09:38:49.645Z,39.70
2019-03-29T09:41:51.926Z,39.80
2019-03-29T09:44:54.179Z,39.90
2019-03-29T09:47:56.422Z,39.90
2019-03-29T09:50:58.688Z,39.90
2019-03-29T09:54:00.969Z,40.00
2019-03-29T09:57:03.217Z,40.00
2019-03-29T10:00:17.779Z,40.00
2019-03-29T10:03:09.917Z,39.90
2019-03-29T10:06:15.168Z,39.80
2019-03-29T10:09:16.122Z,39.90
2019-03-29T10:12:18.387Z,39.70
2019-03-29T10:15:20.715Z,39.60
2019-03-29T10:18:22.977Z,39.50
2019-03-29T10:21:25.261Z,39.40
2019-03-29T10:24:27.512Z,39.20
2019-03-29T10:27:29.769Z,39.10
2019-03-29T10:30:46.314Z,39.00
2019-03-29T10:33:49.054Z,38.80
2019-03-29T10:36:50.950Z,38.60
2019-03-29T10:39:53.225Z,38.40
2019-03-29T10:42:57.982Z,38.30
2019-03-29T10:45:59.503Z,38.10
2019-03-29T10:49:01.831Z,37.90
2019-03-29T10:52:04.140Z,37.90
2019-03-29T10:55:06.491Z,38.30
2019-03-29T10:58:09.870Z,37.60
2019-03-29T11:01:12.432Z,37.30
2019-03-29T11:04:14.770Z,37.20
2019-03-29T11:07:17.093Z,37.10
2019-03-29T11:10:32.178Z,36.80
2019-03-29T11:13:34.710Z,35.40
2019-03-29T11:16:37.058Z,34.20
2019-03-29T11:19:39.378Z,33.80
2019-03-29T11:22:41.659Z,33.80
2019-03-29T11:25:43.908Z,33.80
2019-03-29T11:28:46.178Z,33.90
2019-03-29T11:31:48.452Z,33.80
2019-03-29T11:34:50.749Z,34.10
2019-03-29T11:37:53.030Z,33.90
2019-03-29T11:40:55.269Z,32.70
2019-03-29T11:43:57.518Z,32.30
2019-03-29T11:47:00.418Z,32.20
2019-03-29T11:50:02.648Z,31.50
2019-03-29T11:53:05.074Z,31.00
2019-03-29T11:56:07.335Z,31.10
2019-03-29T11:59:09.788Z,30.60
2019-03-29T12:02:12.030Z,30.40
2019-03-29T12:05:14.272Z,31.00
2019-03-29T12:08:16.595Z,29.20
2019-03-29T12:11:18.923Z,29.60
2019-03-29T12:14:21.298Z,29.50
2019-03-29T12:17:23.661Z,29.40
2019-03-29T12:20:26.025Z,29.40
2019-03-29T12:23:28.310Z,29.40
2019-03-29T12:26:31.672Z,29.10
2019-03-29T12:29:33.934Z,27.60
2019-03-29T12:32:36.216Z,27.80
2019-03-29T12:35:38.465Z,27.70
2019-03-29T12:38:40.723Z,29.40
2019-03-29T12:41:42.992Z,29.20
2019-03-29T12:44:45.273Z,28.60
2019-03-29T12:47:47.518Z,26.90
2019-03-29T12:50:49.776Z,26.40
2019-03-29T12:53:52.039Z,27.10
2019-03-29T12:56:54.295Z,26.00
2019-03-29T12:59:56.531Z,26.30
2019-03-29T13:02:58.779Z,25.20
2019-03-29T13:06:01.031Z,25.90
2019-03-29T13:09:03.550Z,24.90
2019-03-29T13:12:05.897Z,24.40
2019-03-29T13:15:08.789Z,23.10
2019-03-29T13:18:11.091Z,23.10
2019-03-29T13:21:13.351Z,22.60
2019-03-29T13:24:16.285Z,23.20
2019-03-29T13:27:19.825Z,24.20
2019-03-29T13:30:22.176Z,23.90
2019-03-29T13:33:24.410Z,24.50
2019-03-29T13:36:26.688Z,25.10
2019-03-29T13:39:28.975Z,24.60
2019-03-29T13:42:31.242Z,24.20
2019-03-29T13:45:33.495Z,23.00
2019-03-29T13:48:35.772Z,23.00
2019-03-29T13:51:38.177Z,22.30
2019-03-29T13:54:40.456Z,22.10
2019-03-29T13:57:42.710Z,22.30
2019-03-29T14:00:44.981Z,21.80
2019-03-29T14:03:47.261Z,22.10
2019-03-29T14:06:49.547Z,21.70
2019-03-29T14:09:51.815Z,21.20
2019-03-29T14:12:54.091Z,21.00
2019-03-29T14:15:56.363Z,21.50
2019-03-29T14:18:58.609Z,21.40
2019-03-29T14:22:00.914Z,20.90
2019-03-29T14:25:03.163Z,20.80
2019-03-29T14:28:05.803Z,21.60
2019-03-29T14:31:08.085Z,20.40
2019-03-29T14:34:10.332Z,19.70
2019-03-29T14:37:12.625Z,21.00
2019-03-29T14:40:14.971Z,20.40
2019-03-29T14:43:17.256Z,20.20
2019-03-29T14:46:19.497Z,20.30
2019-03-29T14:49:21.747Z,20.20
2019-03-29T14:52:24.093Z,20.30
2019-03-29T14:55:26.348Z,20.80
2019-03-29T14:58:28.607Z,20.10
2019-03-29T15:01:30.897Z,20.10
2019-03-29T15:04:33.174Z,20.10
2019-03-29T15:07:35.783Z,20.80
2019-03-29T15:10:38.045Z,20.70
2019-03-29T15:13:40.345Z,21.00
2019-03-29T15:16:42.589Z,20.90
2019-03-29T15:19:44.852Z,22.10
2019-03-29T15:22:47.087Z,22.10
2019-03-29T15:25:49.367Z,21.90
2019-03-29T15:28:51.625Z,22.10
2019-03-29T15:31:53.892Z,22.20
2019-03-29T15:38:30.292Z,22.50
2019-03-29T15:41:32.602Z,23.60
2019-03-29T15:44:35.227Z,23.10
2019-03-29T15:47:40.224Z,22.90
2019-03-29T15:50:41.977Z,22.90
2019-03-29T15:53:44.423Z,23.20
2019-03-29T15:56:46.848Z,23.20
2019-03-29T15:59:49.292Z,23.40
2019-03-29T16:02:51.581Z,23.60
2019-03-29T16:05:53.895Z,23.60
2019-03-29T16:08:56.233Z,23.60
2019-03-29T16:11:58.545Z,23.40
2019-03-29T16:15:00.922Z,22.80
2019-03-29T16:18:03.232Z,22.50
2019-03-29T16:21:05.623Z,22.30
2019-03-29T16:24:07.926Z,22.20
2019-03-29T16:27:10.226Z,22.10
2019-03-29T16:30:13.346Z,22.10
2019-03-29T16:33:15.620Z,21.90
2019-03-29T16:36:18.067Z,22.00
2019-03-29T16:39:20.349Z,21.90
2019-03-29T16:42:22.665Z,21.90
2019-03-29T16:45:25.755Z,21.90
2019-03-29T16:48:28.096Z,22.10
2019-03-29T16:51:30.386Z,22.20
2019-03-29T16:54:32.672Z,22.30
2019-03-29T16:57:35.013Z,22.50
2019-03-29T17:00:37.406Z,22.60
2019-03-29T17:03:39.687Z,22.80
2019-03-29T17:06:42.076Z,23.20
2019-03-29T17:09:44.427Z,23.60
2019-03-29T17:12:46.785Z,24.00
2019-03-29T17:16:01.193Z,21.70
2019-03-29T17:18:53.091Z,20.40
2019-03-29T17:21:55.380Z,21.30
2019-03-29T17:24:57.631Z,21.80
2019-03-29T17:27:59.902Z,22.40
2019-03-29T17:31:04.774Z,22.60
2019-03-29T17:34:07.030Z,23.10
2019-03-29T17:37:09.285Z,23.60
2019-03-29T17:40:12.011Z,24.00
2019-03-29T17:43:14.341Z,24.40
2019-03-29T17:46:17.168Z,24.80
2019-03-29T17:49:19.614Z,25.20
2019-03-29T17:52:21.890Z,25.70
2019-03-29T17:55:24.140Z,25.90
2019-03-29T17:58:26.402Z,26.30
2019-03-29T18:04:30.140Z,26.40
2019-03-29T18:07:32.457Z,27.30
2019-03-29T18:10:34.713Z,27.60
2019-03-29T18:13:37.101Z,28.00
2019-03-29T18:16:42.364Z,28.20
2019-03-29T18:19:44.621Z,28.40
2019-03-29T18:22:47.109Z,28.70
2019-03-29T18:25:50.431Z,29.00
2019-03-29T18:28:52.695Z,29.10
2019-03-29T18:31:55.391Z,29.30
2019-03-29T18:34:57.685Z,29.50
2019-03-29T18:38:00.039Z,29.70
2019-03-29T18:41:02.287Z,29.90
2019-03-29T18:44:04.550Z,30.00
2019-03-29T18:47:06.808Z,30.30
2019-03-29T18:50:09.304Z,30.40
2019-03-29T18:53:11.593Z,30.70
2019-03-29T18:56:13.840Z,30.90
2019-03-29T18:59:16.215Z,31.10
2019-03-29T19:02:18.443Z,31.30
2019-03-29T19:05:26.976Z,31.40
2019-03-29T19:08:29.248Z,31.70
2019-03-29T19:11:31.492Z,31.80
2019-03-29T19:14:33.781Z,32.00
2019-03-29T19:17:36.042Z,32.20
2019-03-29T19:20:38.287Z,32.30
2019-03-29T19:23:40.582Z,32.50
2019-03-29T19:26:42.838Z,32.60
2019-03-29T19:29:45.116Z,32.80
2019-03-29T19:32:47.969Z,32.90
2019-03-29T19:35:50.400Z,33.10
2019-03-29T19:38:52.951Z,33.30
2019-03-29T19:41:55.213Z,33.40
2019-03-29T19:44:57.475Z,33.50
2019-03-29T19:47:59.741Z,33.70
2019-03-29T19:51:02.002Z,33.90
2019-03-29T19:54:07.593Z,34.00
2019-03-29T19:57:08.311Z,34.00
2019-03-29T20:00:12.590Z,34.20
2019-03-29T20:03:14.966Z,34.20
2019-03-29T20:06:17.215Z,34.30
2019-03-29T20:09:19.470Z,34.40
2019-03-29T20:12:24.949Z,34.50
2019-03-29T20:15:25.689Z,34.50
2019-03-29T20:18:29.018Z,34.70
2019-03-29T20:21:32.326Z,34.90
2019-03-29T20:24:34.623Z,34.90
2019-03-29T20:27:36.849Z,35.20
2019-03-29T20:30:39.108Z,35.10
2019-03-29T20:33:41.388Z,35.30
2019-03-29T20:36:44.731Z,35.30
2019-03-29T20:39:47.398Z,35.40
2019-03-29T20:42:49.714Z,35.60
2019-03-29T20:45:52.049Z,35.70
2019-03-29T20:48:55.409Z,35.80
2019-03-29T20:51:57.690Z,36.00
2019-03-29T20:55:00.002Z,36.70
2019-03-29T20:58:02.227Z,36.10
2019-03-29T21:01:04.473Z,36.30
2019-03-29T21:04:06.853Z,36.20
2019-03-29T21:07:09.537Z,36.30
2019-03-29T21:10:13.131Z,36.20
2019-03-29T21:13:15.848Z,36.10
2019-03-29T21:16:18.725Z,36.10
2019-03-29T21:19:21.624Z,35.90
2019-03-29T21:22:24.536Z,36.00
2019-03-29T21:25:27.818Z,36.00
2019-03-29T21:28:30.624Z,35.90
2019-03-29T21:31:42.531Z,35.90
2019-03-29T21:38:50.004Z,35.90
2019-03-29T21:41:58.314Z,35.90
2019-03-29T21:45:04.881Z,35.90
2019-03-29T21:48:28.065Z,36.00
2019-03-29T21:51:56.446Z,35.90
2019-03-29T21:55:10.683Z,36.60
2019-03-29T21:58:17.482Z,35.90
2019-03-29T22:01:21.862Z,36.00
2019-03-29T22:04:25.110Z,36.00
2019-03-29T22:07:30.199Z,36.00
2019-03-29T22:10:34.055Z,36.00
2019-03-29T22:13:37.764Z,36.10
2019-03-29T22:16:41.370Z,36.00
2019-03-29T22:19:50.155Z,36.10
2019-03-29T22:26:57.838Z,36.00
2019-03-29T22:30:03.387Z,36.20
2019-03-29T22:33:07.885Z,36.10
2019-03-29T22:36:12.749Z,36.00
2019-03-29T22:39:20.503Z,36.10
2019-03-29T22:42:24.231Z,36.10
2019-03-29T22:45:28.589Z,36.10
2019-03-29T22:48:32.077Z,36.10
2019-03-29T22:51:36.631Z,36.10
2019-03-29T22:54:41.533Z,36.20
2019-03-29T22:57:48.036Z,36.20
2019-03-29T23:00:56.599Z,36.20
2019-03-29T23:04:03.516Z,36.20
2019-03-29T23:07:07.806Z,36.30
2019-03-29T23:10:11.267Z,36.30
2019-03-29T23:13:14.535Z,36.20
2019-03-29T23:16:19.912Z,36.20
2019-03-29T23:19:25.259Z,36.30
2019-03-29T23:22:29.536Z,36.30
2019-03-29T23:25:35.633Z,36.20
2019-03-29T23:28:38.760Z,36.20
2019-03-29T23:31:41.511Z,36.30
2019-03-29T23:34:45.364Z,36.20
2019-03-29T23:37:48.500Z,36.30
2019-03-29T23:40:51.239Z,36.30
2019-03-29T23:43:54.238Z,36.20
2019-03-29T23:46:57.078Z,36.20
2019-03-29T23:49:59.959Z,36.30
2019-03-29T23:53:02.838Z,36.30
2019-03-29T23:56:06.060Z,36.30
2019-03-29T23:59:09.862Z,36.30
